Time;durP1;ratioP1;P1;durP2;ratioP2;P2;SDS_P1;SDS_P2;PMS_P1;PMS_P2;Temp;Humidity;BMP_temperature;BMP_pressure;BME280_temperature;BME280_humidity;BME280_pressure;Samples;Min_cycle;Max_cycle;Signal;HPM_P1;HPM_P2
2022/07/31 00:00:29;;;;;;;7.33;6.30;;;20.40;68.30;;;;;;5069903;28;20436;-72
2022/07/31 00:02:55;;;;;;;6.30;5.17;;;20.40;68.50;;;;;;5067839;28;20514;-71
2022/07/31 00:05:22;;;;;;;7.87;6.40;;;20.30;68.80;;;;;;5056747;28;20422;-71
2022/07/31 00:07:48;;;;;;;9.37;5.97;;;20.30;68.50;;;;;;5067642;28;21005;-71
2022/07/31 00:10:14;;;;;;;8.70;5.70;;;20.20;69.10;;;;;;5063716;28;20422;-71
2022/07/31 00:12:39;;;;;;;7.20;5.63;;;20.20;68.90;;;;;;5062658;28;20887;-70
2022/07/31 00:15:08;;;;;;;6.90;5.60;;;20.20;69.40;;;;;;5059855;28;20180;-71
2022/07/31 00:17:36;;;;;;;6.40;5.70;;;20.10;69.80;;;;;;5066473;28;20218;-71
2022/07/31 00:20:02;;;;;;;7.53;5.70;;;20.20;69.20;;;;;;5069693;28;20421;-72
2022/07/31 00:22:28;;;;;;;7.97;6.20;;;20.20;69.10;;;;;;5068123;28;20426;-71
2022/07/31 00:24:53;;;;;;;8.60;5.40;;;20.20;69.10;;;;;;5069069;28;20414;-73
2022/07/31 00:27:19;;;;;;;7.80;5.33;;;20.10;69.20;;;;;;5062415;28;20207;-73
2022/07/31 00:29:45;;;;;;;6.50;5.70;;;20.20;69.10;;;;;;5067876;28;20707;-72
2022/07/31 00:32:11;;;;;;;8.47;5.70;;;20.10;68.60;;;;;;5065849;28;20465;-72
2022/07/31 00:34:36;;;;;;;8.57;5.47;;;20.10;67.90;;;;;;5060665;28;20191;-72
2022/07/31 00:37:02;;;;;;;11.20;5.40;;;20.10;67.90;;;;;;5059816;28;20212;-73
2022/07/31 00:39:29;;;;;;;5.80;5.30;;;20.10;68.30;;;;;;5065127;28;20172;-73
2022/07/31 00:41:55;;;;;;;6.87;5.17;;;20.20;68.30;;;;;;5055648;28;20264;-71
2022/07/31 00:44:20;;;;;;;5.70;5.40;;;20.20;68.20;;;;;;5063246;28;20513;-73
2022/07/31 00:46:46;;;;;;;8.27;6.00;;;20.30;67.60;;;;;;5064413;28;20173;-72
2022/07/31 00:49:12;;;;;;;6.80;5.83;;;20.20;67.90;;;;;;5073357;28;20253;-73
2022/07/31 00:51:38;;;;;;;5.30;5.00;;;20.10;68.50;;;;;;5071687;28;20265;-73
2022/07/31 00:54:05;;;;;;;8.07;5.87;;;20.20;68.50;;;;;;5067510;28;20277;-73
2022/07/31 00:56:31;;;;;;;5.80;5.40;;;20.10;68.50;;;;;;5055474;28;20418;-73
2022/07/31 00:58:57;;;;;;;8.53;5.53;;;20.20;68.30;;;;;;5069197;28;20440;-73
2022/07/31 01:01:22;;;;;;;6.73;5.07;;;20.10;68.60;;;;;;5065167;28;20184;-73
2022/07/31 01:03:49;;;;;;;9.47;5.43;;;20.00;69.10;;;;;;5071048;28;20181;-74
2022/07/31 01:06:14;;;;;;;10.43;6.27;;;20.00;69.40;;;;;;5067457;28;20686;-73
2022/07/31 01:08:40;;;;;;;8.90;6.00;;;20.00;69.20;;;;;;5073060;28;20530;-73
2022/07/31 01:11:28;;;;;;;9.03;5.63;;;19.90;69.20;;;;;;5067441;28;20701;-72
2022/07/31 01:13:58;;;;;;;6.03;5.60;;;19.70;69.80;;;;;;5067002;28;20179;-73
2022/07/31 01:16:26;;;;;;;8.63;6.57;;;19.70;69.80;;;;;;5070512;28;20449;-72
2022/07/31 01:18:55;;;;;;;5.73;5.10;;;19.70;70.10;;;;;;5065219;28;20500;-71
2022/07/31 01:21:31;;;;;;;8.53;4.97;;;19.60;70.20;;;;;;5065573;28;20425;-71
2022/07/31 01:24:27;;;;;;;6.27;4.70;;;19.60;69.90;;;;;;5064192;28;20529;-71
2022/07/31 01:26:59;;;;;;;6.77;5.00;;;19.70;69.40;;;;;;5067285;28;22449;-72
2022/07/31 01:29:36;;;;;;;5.00;4.57;;;19.70;68.50;;;;;;5071790;28;21004;-72
2022/07/31 01:32:08;;;;;;;10.53;5.30;;;19.60;68.50;;;;;;5071509;28;20495;-72
2022/07/31 01:34:53;;;;;;;9.13;5.20;;;19.50;68.80;;;;;;5071290;28;20834;-71
2022/07/31 01:37:46;;;;;;;6.23;5.30;;;19.50;69.50;;;;;;5067130;28;20975;-73
2022/07/31 01:40:17;;;;;;;8.20;5.60;;;19.50;69.90;;;;;;5066140;28;20416;-71
2022/07/31 01:42:48;;;;;;;8.50;5.47;;;19.50;70.40;;;;;;5068077;28;20510;-73
2022/07/31 01:45:16;;;;;;;7.10;5.50;;;19.50;70.50;;;;;;5062442;28;20414;-71
2022/07/31 01:47:43;;;;;;;10.23;5.87;;;19.50;70.80;;;;;;5065277;28;20454;-72
2022/07/31 01:50:10;;;;;;;6.73;5.43;;;19.30;71.30;;;;;;5062566;28;20421;-72
2022/07/31 01:52:39;;;;;;;10.40;5.60;;;19.30;71.60;;;;;;5067293;28;20458;-72
2022/07/31 01:55:06;;;;;;;14.63;5.80;;;19.30;71.40;;;;;;5077463;28;20822;-74
2022/07/31 01:57:33;;;;;;;6.30;5.30;;;19.30;71.70;;;;;;5075698;28;20454;-73
2022/07/31 02:00:04;;;;;;;7.20;5.50;;;19.20;71.70;;;;;;5076163;28;20442;-73
2022/07/31 02:02:30;;;;;;;7.80;5.50;;;19.10;71.80;;;;;;5063102;28;20445;-73
2022/07/31 02:04:57;;;;;;;6.57;5.00;;;19.20;71.70;;;;;;5071112;28;20419;-70
2022/07/31 02:07:24;;;;;;;6.97;5.93;;;19.10;72.10;;;;;;5061068;28;20450;-72
2022/07/31 02:09:51;;;;;;;7.23;5.33;;;19.10;72.10;;;;;;5067958;28;20417;-73
2022/07/31 02:12:17;;;;;;;7.50;6.00;;;19.00;72.70;;;;;;5065071;28;20917;-74
2022/07/31 02:14:44;;;;;;;6.77;5.13;;;18.90;73.00;;;;;;5069720;28;20512;-72
2022/07/31 02:17:11;;;;;;;8.00;5.43;;;18.80;73.30;;;;;;5068152;28;20498;-72
2022/07/31 02:19:39;;;;;;;12.90;6.30;;;18.80;73.30;;;;;;5068800;28;20433;-71
2022/07/31 02:22:05;;;;;;;8.23;5.87;;;18.80;73.50;;;;;;5067325;28;20999;-74
2022/07/31 02:24:32;;;;;;;7.30;5.50;;;18.70;73.70;;;;;;5069490;28;21081;-73
2022/07/31 02:26:59;;;;;;;6.80;5.63;;;18.70;73.90;;;;;;5066161;28;20463;-72
2022/07/31 02:29:29;;;;;;;10.50;5.27;;;18.70;73.60;;;;;;5069092;28;20507;-73
2022/07/31 02:31:57;;;;;;;10.30;5.57;;;18.60;73.90;;;;;;5067418;28;20463;-71
2022/07/31 02:34:23;;;;;;;6.83;5.50;;;18.60;73.20;;;;;;5063555;28;20900;-72
2022/07/31 02:36:52;;;;;;;8.67;5.80;;;18.50;73.00;;;;;;5066264;28;20541;-71
2022/07/31 02:39:19;;;;;;;7.37;5.90;;;18.50;72.70;;;;;;5069293;28;20535;-72
2022/07/31 02:41:46;;;;;;;6.73;5.30;;;18.40;73.00;;;;;;5068562;28;20984;-73
2022/07/31 02:44:13;;;;;;;7.97;5.53;;;18.50;73.30;;;;;;5070133;28;20844;-72
2022/07/31 02:46:39;;;;;;;6.87;5.63;;;18.60;73.90;;;;;;5067864;28;20414;-72
2022/07/31 02:49:06;;;;;;;6.00;5.20;;;18.60;74.20;;;;;;5069485;28;20435;-72
2022/07/31 02:51:33;;;;;;;7.57;6.00;;;18.50;74.20;;;;;;5074714;28;20471;-73
2022/07/31 02:53:58;;;;;;;8.23;6.07;;;18.50;74.50;;;;;;5079697;28;20475;-71
2022/07/31 02:56:24;;;;;;;6.73;5.70;;;18.40;74.60;;;;;;5065566;28;20423;-73
2022/07/31 02:58:50;;;;;;;7.40;5.83;;;18.30;74.50;;;;;;5066566;28;20206;-72
2022/07/31 03:01:16;;;;;;;7.37;5.60;;;18.20;74.50;;;;;;5064165;28;20223;-73
2022/07/31 03:03:42;;;;;;;8.27;6.50;;;18.20;74.50;;;;;;5064844;28;20212;-72
2022/07/31 03:06:07;;;;;;;6.53;5.70;;;18.20;74.50;;;;;;5066852;28;20180;-72
2022/07/31 03:08:33;;;;;;;9.70;6.70;;;18.30;74.60;;;;;;5065768;28;20458;-73
2022/07/31 03:10:59;;;;;;;10.00;6.20;;;18.30;74.50;;;;;;5063221;28;20587;-74
2022/07/31 03:13:28;;;;;;;10.47;5.90;;;18.20;74.20;;;;;;5068142;28;20615;-73
2022/07/31 03:15:54;;;;;;;8.90;6.10;;;18.10;74.20;;;;;;5062104;28;20458;-74
2022/07/31 03:18:21;;;;;;;7.40;6.07;;;18.10;74.30;;;;;;5067418;28;20515;-74
2022/07/31 03:20:50;;;;;;;5.47;5.20;;;18.20;74.00;;;;;;5067059;28;20426;-72
2022/07/31 03:23:20;;;;;;;8.40;5.70;;;18.20;73.90;;;;;;5059913;28;20970;-74
2022/07/31 03:25:47;;;;;;;7.50;6.00;;;18.20;73.90;;;;;;5069005;28;20950;-71
2022/07/31 03:28:13;;;;;;;9.93;5.37;;;18.20;74.00;;;;;;5056883;28;20564;-73
2022/07/31 03:30:38;;;;;;;8.30;5.90;;;18.10;74.20;;;;;;5079081;28;20421;-72
2022/07/31 03:33:05;;;;;;;5.97;5.33;;;18.10;74.50;;;;;;5072046;28;20211;-73
2022/07/31 03:35:32;;;;;;;6.73;5.17;;;18.10;74.90;;;;;;5068602;28;20187;-73
2022/07/31 03:37:58;;;;;;;8.43;6.10;;;18.00;74.60;;;;;;5064884;28;20566;-72
2022/07/31 03:40:24;;;;;;;6.23;5.60;;;18.10;75.40;;;;;;5066130;28;20981;-75
2022/07/31 03:42:52;;;;;;;9.30;6.10;;;18.20;75.50;;;;;;5065881;28;20425;-73
2022/07/31 03:45:19;;;;;;;7.80;6.27;;;18.20;75.70;;;;;;5065822;28;20191;-72
2022/07/31 03:47:45;;;;;;;8.33;6.00;;;18.10;75.70;;;;;;5065392;28;20998;-71
2022/07/31 03:50:11;;;;;;;8.30;6.53;;;18.10;75.70;;;;;;5066540;28;20912;-72
2022/07/31 03:52:38;;;;;;;6.30;5.70;;;18.00;75.80;;;;;;5067813;28;20532;-71
2022/07/31 03:55:06;;;;;;;7.83;6.47;;;18.00;75.90;;;;;;5066783;28;20429;-73
2022/07/31 03:57:32;;;;;;;7.83;6.67;;;17.90;76.80;;;;;;5062510;28;20960;-73
2022/07/31 04:00:00;;;;;;;13.20;7.97;;;18.10;76.40;;;;;;5069304;28;20421;-73
2022/07/31 04:02:26;;;;;;;8.33;6.40;;;18.10;76.20;;;;;;5066385;28;20611;-73
2022/07/31 04:04:52;;;;;;;12.00;7.50;;;17.90;76.70;;;;;;5062214;28;20435;-72
2022/07/31 04:07:18;;;;;;;7.27;6.60;;;17.80;77.40;;;;;;5063979;28;20465;-73
2022/07/31 04:09:44;;;;;;;12.17;6.90;;;17.70;77.80;;;;;;5067531;28;20546;-73
2022/07/31 04:12:09;;;;;;;9.97;6.83;;;17.60;77.80;;;;;;5067632;28;20898;-74
2022/07/31 04:14:35;;;;;;;8.50;6.47;;;17.60;78.00;;;;;;5069081;28;20191;-74
2022/07/31 04:17:01;;;;;;;7.13;6.60;;;17.70;77.40;;;;;;5071543;28;20223;-74
2022/07/31 04:19:29;;;;;;;9.30;6.17;;;17.70;77.70;;;;;;5073128;28;20628;-72
2022/07/31 04:21:56;;;;;;;8.67;6.80;;;17.70;77.70;;;;;;5076040;28;20180;-71
2022/07/31 04:24:22;;;;;;;7.47;6.17;;;17.80;77.80;;;;;;5085157;28;20463;-72
2022/07/31 04:26:49;;;;;;;8.77;7.60;;;17.80;77.70;;;;;;5073926;28;20429;-72
2022/07/31 04:29:15;;;;;;;8.10;7.00;;;17.90;77.40;;;;;;5071993;28;20649;-74
2022/07/31 04:31:40;;;;;;;9.57;7.37;;;17.90;77.30;;;;;;5072322;28;20476;-74
2022/07/31 04:34:06;;;;;;;8.97;6.60;;;17.90;77.40;;;;;;5071289;28;20511;-73
2022/07/31 04:36:32;;;;;;;9.93;7.03;;;18.00;77.40;;;;;;5055600;28;20192;-73
2022/07/31 04:38:59;;;;;;;11.17;7.53;;;17.90;77.40;;;;;;5067242;28;20199;-72
2022/07/31 04:41:24;;;;;;;9.17;7.00;;;18.00;77.30;;;;;;5069849;28;20273;-72
2022/07/31 04:43:50;;;;;;;8.97;6.93;;;17.90;77.40;;;;;;5070749;28;20509;-75
2022/07/31 04:46:16;;;;;;;11.17;7.07;;;17.80;77.70;;;;;;5068793;28;20192;-73
2022/07/31 04:48:41;;;;;;;11.40;6.60;;;17.70;77.80;;;;;;5069479;28;20222;-71
2022/07/31 04:51:07;;;;;;;9.30;6.40;;;17.70;78.00;;;;;;5069011;28;20195;-73
2022/07/31 04:53:32;;;;;;;8.83;7.00;;;17.80;78.30;;;;;;5071462;28;20184;-73
2022/07/31 04:58:42;;;;;;;9.00;7.10;;;17.80;78.40;;;;;;5063782;28;20755;-73
2022/07/31 05:01:07;;;;;;;8.17;6.90;;;17.90;78.10;;;;;;5067149;28;20433;-73
2022/07/31 05:03:33;;;;;;;7.70;6.50;;;17.90;77.80;;;;;;5068950;28;20199;-73
2022/07/31 05:06:10;;;;;;;9.47;6.57;;;18.00;77.00;;;;;;5073261;28;20230;-73
2022/07/31 05:08:35;;;;;;;8.07;6.30;;;18.10;77.00;;;;;;5067959;28;20240;-73
2022/07/31 05:13:45;;;;;;;7.17;6.40;;;18.30;76.40;;;;;;5066440;28;20673;-73
2022/07/31 05:16:11;;;;;;;7.30;6.10;;;18.50;75.80;;;;;;5072397;28;20427;-73
2022/07/31 05:18:37;;;;;;;8.23;6.23;;;18.70;75.40;;;;;;5069655;28;20460;-74
2022/07/31 05:21:02;;;;;;;9.00;6.73;;;18.90;74.80;;;;;;5071209;28;20661;-74
2022/07/31 05:23:28;;;;;;;9.90;6.10;;;19.10;73.30;;;;;;5070507;28;20565;-73
2022/07/31 05:25:54;;;;;;;7.37;6.73;;;19.10;73.50;;;;;;5069932;28;20178;-71
2022/07/31 05:28:19;;;;;;;9.63;7.00;;;19.10;73.60;;;;;;5071063;28;20264;-72
2022/07/31 05:30:45;;;;;;;6.63;6.20;;;19.10;73.60;;;;;;5070662;28;20188;-72
2022/07/31 05:33:12;;;;;;;9.37;7.27;;;19.20;73.60;;;;;;5070673;28;20204;-72
2022/07/31 05:35:37;;;;;;;11.90;6.67;;;19.20;73.50;;;;;;5072933;28;20181;-74
2022/07/31 05:38:03;;;;;;;8.10;6.80;;;19.20;73.20;;;;;;5068179;28;20465;-74
2022/07/31 05:40:28;;;;;;;7.30;6.57;;;19.30;72.90;;;;;;5070728;28;20177;-73
2022/07/31 05:42:54;;;;;;;7.43;6.43;;;19.40;72.60;;;;;;5065721;28;20250;-73
2022/07/31 05:45:20;;;;;;;8.73;6.40;;;19.50;72.30;;;;;;5067491;28;20183;-74
2022/07/31 05:47:45;;;;;;;6.73;6.10;;;19.60;71.80;;;;;;5067389;28;20268;-71
2022/07/31 05:50:11;;;;;;;8.80;6.20;;;19.60;71.60;;;;;;5068423;28;20709;-74
2022/07/31 05:52:37;;;;;;;8.03;6.40;;;19.80;71.40;;;;;;5072114;28;20667;-72
2022/07/31 05:55:03;;;;;;;8.87;5.83;;;19.90;71.00;;;;;;5072335;28;20267;-74
2022/07/31 05:57:29;;;;;;;8.13;6.40;;;20.10;70.40;;;;;;5066320;28;20216;-74
2022/07/31 05:59:54;;;;;;;8.20;6.43;;;20.30;69.20;;;;;;5072287;28;20411;-73
2022/07/31 06:02:20;;;;;;;6.97;6.17;;;20.50;68.80;;;;;;5070357;28;20210;-73
2022/07/31 06:04:45;;;;;;;9.00;6.53;;;20.50;68.60;;;;;;5071036;28;20219;-72
2022/07/31 06:07:11;;;;;;;8.37;6.90;;;20.60;68.60;;;;;;5065082;28;20263;-72
2022/07/31 06:09:37;;;;;;;8.80;6.63;;;20.50;68.80;;;;;;5070197;28;20294;-72
2022/07/31 06:12:02;;;;;;;6.50;6.00;;;20.50;69.10;;;;;;5068240;28;20647;-72
2022/07/31 06:14:28;;;;;;;7.10;5.80;;;20.80;68.60;;;;;;5073772;28;20204;-73
2022/07/31 06:16:54;;;;;;;7.60;6.87;;;21.00;67.90;;;;;;5067967;28;20287;-74
2022/07/31 06:19:20;;;;;;;11.07;6.70;;;21.00;67.50;;;;;;5077478;28;20271;-74
2022/07/31 06:21:45;;;;;;;6.97;5.97;;;21.10;67.50;;;;;;5075808;28;20198;-73
2022/07/31 06:24:11;;;;;;;6.60;6.10;;;21.10;67.00;;;;;;5078493;28;20798;-72
2022/07/31 06:26:37;;;;;;;7.33;6.17;;;21.10;66.90;;;;;;5066644;28;20190;-73
2022/07/31 06:29:03;;;;;;;8.80;5.30;;;21.20;66.70;;;;;;5066292;28;20929;-72
2022/07/31 06:31:29;;;;;;;10.90;6.00;;;21.50;65.70;;;;;;5065620;28;20740;-74
2022/07/31 06:33:54;;;;;;;5.90;5.60;;;21.60;65.30;;;;;;5066794;28;20491;-72
2022/07/31 06:36:20;;;;;;;7.00;5.90;;;21.80;65.10;;;;;;5070993;28;20714;-73
2022/07/31 06:38:45;;;;;;;8.23;6.50;;;21.80;65.30;;;;;;5070314;28;20257;-73
2022/07/31 06:41:43;;;;;;;8.37;6.00;;;21.70;65.60;;;;;;5069772;28;20260;-72
2022/07/31 06:43:57;;;;;;;8.70;6.20;;;21.70;65.10;;;;;;5070316;28;20295;-72
2022/07/31 06:46:22;;;;;;;9.77;5.83;;;21.70;64.50;;;;;;5070501;28;20455;-73
2022/07/31 06:48:48;;;;;;;6.27;5.53;;;21.80;64.10;;;;;;5068104;28;20205;-73
2022/07/31 06:51:14;;;;;;;9.07;5.50;;;21.80;64.50;;;;;;5068841;28;20756;-73
2022/07/31 06:53:40;;;;;;;9.03;6.27;;;21.70;64.50;;;;;;5069059;28;20252;-71
2022/07/31 06:56:05;;;;;;;9.50;6.53;;;21.90;64.10;;;;;;5070638;28;20795;-73
2022/07/31 06:58:32;;;;;;;6.33;5.70;;;22.10;63.70;;;;;;5071164;28;20206;-74
2022/07/31 07:00:57;;;;;;;6.97;5.90;;;22.20;63.50;;;;;;5071999;28;20191;-74
2022/07/31 07:03:23;;;;;;;8.97;5.93;;;22.30;63.10;;;;;;5073499;28;20427;-73
2022/07/31 07:05:48;;;;;;;11.13;5.77;;;22.40;62.80;;;;;;5065147;28;20179;-72
2022/07/31 07:08:14;;;;;;;5.47;5.17;;;22.30;62.60;;;;;;5070260;28;20202;-73
2022/07/31 07:10:40;;;;;;;7.10;6.70;;;22.20;63.20;;;;;;5085028;28;20195;-74
2022/07/31 07:13:05;;;;;;;8.50;6.30;;;22.20;63.50;;;;;;5092110;28;20293;-74
2022/07/31 07:15:31;;;;;;;9.37;6.77;;;22.20;63.90;;;;;;5085442;28;20190;-72
2022/07/31 07:17:56;;;;;;;12.87;6.90;;;22.20;65.00;;;;;;5082461;28;20229;-73
2022/07/31 07:20:22;;;;;;;10.40;6.60;;;22.10;65.60;;;;;;5067784;28;20287;-74
2022/07/31 07:22:48;;;;;;;9.83;7.23;;;22.00;66.40;;;;;;5065091;28;20780;-73
2022/07/31 07:25:13;;;;;;;7.33;6.93;;;22.10;66.60;;;;;;5067181;28;20320;-73
2022/07/31 07:27:39;;;;;;;9.37;6.60;;;22.10;65.70;;;;;;5060673;28;20210;-73
2022/07/31 07:30:05;;;;;;;8.70;7.10;;;22.10;65.00;;;;;;5058772;28;20194;-73
2022/07/31 07:32:31;;;;;;;10.50;8.03;;;22.00;68.00;;;;;;5058549;28;20218;-72
2022/07/31 07:34:56;;;;;;;9.20;7.00;;;21.90;68.00;;;;;;5064386;28;20426;-73
2022/07/31 07:37:22;;;;;;;8.63;6.90;;;22.00;66.90;;;;;;5057745;28;20290;-74
2022/07/31 07:39:48;;;;;;;9.80;6.93;;;22.10;66.60;;;;;;5067319;28;20182;-72
2022/07/31 07:42:13;;;;;;;8.47;7.00;;;22.20;66.10;;;;;;5061452;28;20261;-71
2022/07/31 07:44:39;;;;;;;8.30;7.53;;;22.30;66.60;;;;;;5067791;28;20259;-74
2022/07/31 07:47:04;;;;;;;8.07;6.80;;;22.40;66.10;;;;;;5065995;28;20212;-72
2022/07/31 07:49:30;;;;;;;11.03;6.80;;;22.40;66.00;;;;;;5059858;28;20249;-74
2022/07/31 07:51:56;;;;;;;11.30;7.40;;;22.40;66.30;;;;;;5060483;28;20594;-76
2022/07/31 07:54:21;;;;;;;11.40;7.10;;;22.40;66.40;;;;;;5064817;28;20198;-74
2022/07/31 07:56:47;;;;;;;10.23;7.37;;;22.30;67.00;;;;;;5066867;28;20246;-75
2022/07/31 07:59:13;;;;;;;10.43;6.53;;;22.20;67.90;;;;;;5061348;28;20280;-73
2022/07/31 08:01:39;;;;;;;9.03;7.23;;;22.20;68.20;;;;;;5066834;28;20786;-74
2022/07/31 08:04:05;;;;;;;9.33;7.30;;;22.40;67.90;;;;;;5062312;28;20257;-75
2022/07/31 08:06:31;;;;;;;7.83;6.30;;;22.50;67.70;;;;;;5068961;28;20868;-75
2022/07/31 08:08:57;;;;;;;6.93;6.53;;;22.60;67.70;;;;;;5065017;28;20223;-74
2022/07/31 08:11:22;;;;;;;7.73;7.17;;;22.70;67.00;;;;;;5067660;28;20463;-74
2022/07/31 08:13:48;;;;;;;8.03;6.37;;;22.90;66.60;;;;;;5066939;28;20630;-74
2022/07/31 08:16:14;;;;;;;6.43;6.03;;;22.90;66.10;;;;;;5068629;28;20257;-74
2022/07/31 08:18:39;;;;;;;7.30;6.40;;;23.00;65.80;;;;;;5066435;28;20256;-74
2022/07/31 08:21:05;;;;;;;9.73;6.97;;;23.10;65.80;;;;;;5062395;28;20593;-75
2022/07/31 08:23:30;;;;;;;8.60;6.33;;;23.20;65.70;;;;;;5058578;28;20269;-74
2022/07/31 08:25:56;;;;;;;11.50;7.50;;;23.20;65.80;;;;;;5059256;28;20200;-74
2022/07/31 08:28:24;;;;;;;8.63;7.00;;;23.20;66.30;;;;;;5061184;28;20213;-75
2022/07/31 08:30:50;;;;;;;7.37;6.60;;;23.20;66.30;;;;;;5067828;28;20267;-75
2022/07/31 08:33:16;;;;;;;7.40;7.00;;;23.30;66.70;;;;;;5067128;28;20558;-74
2022/07/31 08:35:41;;;;;;;8.57;7.37;;;23.30;67.30;;;;;;5067891;28;20479;-74
2022/07/31 08:38:07;;;;;;;7.67;6.77;;;23.30;67.60;;;;;;5064923;28;20197;-72
2022/07/31 08:40:33;;;;;;;9.30;7.23;;;23.10;66.70;;;;;;5065658;28;20596;-74
2022/07/31 08:42:58;;;;;;;8.33;6.43;;;23.10;67.60;;;;;;5064729;28;20201;-75
2022/07/31 08:45:24;;;;;;;9.80;6.37;;;23.20;67.50;;;;;;5067648;28;20430;-74
2022/07/31 08:47:51;;;;;;;8.33;6.60;;;23.30;66.70;;;;;;5061932;28;20758;-74
2022/07/31 08:50:18;;;;;;;6.93;6.43;;;23.30;67.00;;;;;;5064792;28;20246;-73
2022/07/31 08:52:44;;;;;;;9.47;7.00;;;23.40;67.00;;;;;;5062290;28;20494;-74
2022/07/31 08:55:11;;;;;;;8.50;6.50;;;23.50;66.40;;;;;;5063836;28;20514;-74
2022/07/31 08:57:37;;;;;;;8.70;6.97;;;23.60;66.30;;;;;;5058322;28;20457;-73
2022/07/31 09:00:10;;;;;;;9.27;6.70;;;23.70;65.80;;;;;;5061334;28;20420;-73
2022/07/31 09:02:40;;;;;;;8.27;6.50;;;23.70;65.30;;;;;;5066314;28;20873;-73
2022/07/31 09:05:06;;;;;;;15.03;6.70;;;23.90;64.20;;;;;;5071555;28;20425;-74
2022/07/31 09:07:32;;;;;;;6.53;6.00;;;24.10;63.20;;;;;;5061421;28;20843;-74
2022/07/31 09:09:57;;;;;;;8.10;5.80;;;24.30;62.60;;;;;;5067522;28;20438;-72
2022/07/31 09:12:28;;;;;;;6.57;5.40;;;24.40;60.30;;;;;;5071092;28;20259;-72
2022/07/31 09:14:53;;;;;;;6.80;5.80;;;24.60;59.50;;;;;;5070644;28;20185;-72
2022/07/31 09:17:34;;;;;;;5.90;5.60;;;24.80;57.20;;;;;;5068779;28;20472;-72
2022/07/31 09:20:00;;;;;;;5.60;4.70;;;24.80;55.60;;;;;;5068744;28;20194;-71
2022/07/31 09:22:28;;;;;;;9.97;5.13;;;25.00;55.70;;;;;;5070758;28;20511;-72
2022/07/31 09:25:05;;;;;;;8.30;5.40;;;25.30;55.70;;;;;;5073039;28;20925;-72
2022/07/31 09:27:31;;;;;;;4.70;4.17;;;25.40;55.70;;;;;;5070410;28;20449;-72
2022/07/31 09:29:56;;;;;;;4.60;4.10;;;25.60;54.90;;;;;;5071462;28;20429;-71
2022/07/31 09:32:25;;;;;;;8.87;5.33;;;25.80;54.00;;;;;;5065922;28;20217;-72
2022/07/31 09:34:51;;;;;;;5.13;4.80;;;26.00;53.30;;;;;;5067870;28;20219;-72
2022/07/31 09:37:24;;;;;;;7.40;4.97;;;26.00;53.60;;;;;;5063588;28;20481;-74
2022/07/31 09:39:52;;;;;;;5.87;5.10;;;26.30;51.70;;;;;;5067281;28;20673;-72
2022/07/31 09:42:19;;;;;;;4.83;4.53;;;26.30;50.10;;;;;;5069094;28;20426;-72
2022/07/31 09:44:46;;;;;;;5.30;4.57;;;26.50;49.80;;;;;;5068493;28;20429;-71
2022/07/31 09:47:20;;;;;;;5.60;4.00;;;26.50;48.60;;;;;;5064241;28;20462;-73
2022/07/31 09:49:58;;;;;;;4.43;3.97;;;26.50;48.30;;;;;;5065368;28;20430;-72
2022/07/31 09:52:25;;;;;;;6.60;4.30;;;26.80;48.90;;;;;;5064676;28;20516;-73
2022/07/31 09:55:03;;;;;;;5.07;4.27;;;27.20;47.30;;;;;;5068224;28;20418;-71
2022/07/31 09:57:28;;;;;;;4.57;3.83;;;27.40;46.30;;;;;;5060418;28;20513;-71
2022/07/31 09:59:54;;;;;;;5.30;4.30;;;27.20;45.70;;;;;;5059440;28;20894;-71
2022/07/31 10:02:22;;;;;;;6.40;4.30;;;27.30;45.30;;;;;;5070934;28;20181;-72
2022/07/31 10:04:52;;;;;;;4.33;3.87;;;27.20;45.50;;;;;;5071708;28;20413;-73
2022/07/31 10:07:18;;;;;;;4.33;3.80;;;27.50;45.10;;;;;;5057284;28;20820;-74
2022/07/31 10:09:44;;;;;;;4.40;3.63;;;27.70;44.20;;;;;;5067410;28;20429;-72
2022/07/31 10:12:14;;;;;;;4.33;3.67;;;27.90;43.90;;;;;;5065159;28;20200;-71
2022/07/31 10:14:43;;;;;;;5.40;4.80;;;28.20;43.90;;;;;;5063496;28;20427;-73
2022/07/31 10:17:10;;;;;;;5.17;3.97;;;28.70;41.90;;;;;;5063949;28;20477;-75
2022/07/31 10:19:40;;;;;;;5.80;4.37;;;28.90;41.60;;;;;;5068631;28;20514;-74
2022/07/31 10:22:08;;;;;;;5.43;3.80;;;29.00;41.40;;;;;;5069567;28;20497;-73
2022/07/31 10:24:39;;;;;;;8.63;4.80;;;28.90;41.50;;;;;;5070270;28;20426;-72
2022/07/31 10:27:05;;;;;;;5.00;4.27;;;29.10;41.90;;;;;;5067632;28;20763;-72
2022/07/31 10:29:32;;;;;;;5.00;3.90;;;29.40;41.60;;;;;;5071836;28;20471;-72
2022/07/31 10:31:58;;;;;;;5.93;4.23;;;29.40;40.70;;;;;;5067182;28;20462;-73
2022/07/31 10:34:25;;;;;;;7.90;4.30;;;28.50;42.20;;;;;;5064269;28;20431;-72
2022/07/31 10:36:58;;;;;;;5.00;3.30;;;28.20;42.70;;;;;;5061723;28;20268;-70
2022/07/31 10:39:53;;;;;;;3.80;3.07;;;28.30;41.60;;;;;;5060688;28;20916;-72
2022/07/31 10:42:28;;;;;;;3.63;3.00;;;28.60;42.20;;;;;;5067318;28;20418;-74
2022/07/31 10:45:10;;;;;;;4.07;3.60;;;28.70;41.40;;;;;;5063129;28;21002;-72
2022/07/31 10:47:35;;;;;;;5.97;3.97;;;29.00;40.70;;;;;;5059607;28;20450;-72
2022/07/31 10:50:02;;;;;;;5.27;4.37;;;29.10;40.70;;;;;;5060099;28;20427;-72
2022/07/31 10:52:33;;;;;;;6.00;4.93;;;29.10;41.00;;;;;;5071412;28;20204;-71
2022/07/31 10:55:00;;;;;;;6.67;4.90;;;29.20;41.90;;;;;;5068929;28;20476;-72
2022/07/31 10:57:28;;;;;;;8.83;5.73;;;28.80;43.10;;;;;;5057339;28;20451;-71
2022/07/31 10:59:54;;;;;;;6.50;5.77;;;28.80;43.50;;;;;;5070143;28;20421;-73
2022/07/31 11:02:36;;;;;;;6.37;4.70;;;28.80;44.50;;;;;;5069056;28;20888;-72
2022/07/31 11:05:13;;;;;;;6.00;4.50;;;29.00;43.40;;;;;;5064026;28;20184;-72
2022/07/31 11:07:44;;;;;;;4.70;4.40;;;28.90;42.80;;;;;;5064524;28;20512;-74
2022/07/31 11:10:11;;;;;;;7.13;4.87;;;29.00;42.20;;;;;;5065136;28;20410;-72
2022/07/31 11:12:37;;;;;;;8.70;4.83;;;29.00;42.40;;;;;;5067739;28;20471;-73
2022/07/31 11:15:03;;;;;;;7.70;5.20;;;28.80;42.80;;;;;;5065615;28;20438;-74
2022/07/31 11:17:38;;;;;;;8.23;4.80;;;28.80;44.20;;;;;;5067461;28;21023;-71
2022/07/31 11:20:05;;;;;;;4.50;4.30;;;28.60;44.70;;;;;;5069206;28;20434;-73
2022/07/31 11:22:31;;;;;;;4.70;4.40;;;28.70;44.50;;;;;;5070955;28;20429;-72
2022/07/31 11:24:57;;;;;;;5.70;4.40;;;28.70;44.50;;;;;;5069109;28;20516;-73
2022/07/31 11:27:33;;;;;;;5.60;4.13;;;28.80;44.20;;;;;;5066060;28;20482;-72
2022/07/31 11:30:08;;;;;;;5.10;4.87;;;29.10;43.70;;;;;;5065653;28;20183;-73
2022/07/31 11:32:33;;;;;;;7.47;4.30;;;29.50;42.60;;;;;;5066295;28;20500;-73
2022/07/31 11:34:59;;;;;;;4.43;3.83;;;29.90;41.10;;;;;;5066689;28;20436;-72
2022/07/31 11:37:30;;;;;;;5.30;4.00;;;30.30;39.40;;;;;;5065453;28;20619;-73
2022/07/31 11:40:00;;;;;;;4.97;3.77;;;30.30;39.10;;;;;;5064337;28;20202;-73
2022/07/31 11:42:28;;;;;;;5.17;3.70;;;30.20;39.50;;;;;;5062201;28;20439;-72
2022/07/31 11:45:04;;;;;;;4.87;4.40;;;29.80;39.90;;;;;;5068176;28;20418;-71
2022/07/31 11:47:57;;;;;;;;;;;;;;;;;;;;;
2022/07/31 11:50:25;;;;;;;5.13;4.03;;;29.10;40.70;;;;;;5061630;28;20429;-74
2022/07/31 11:53:01;;;;;;;6.53;4.10;;;28.70;41.50;;;;;;5063266;28;20498;-73
2022/07/31 11:55:27;;;;;;;3.77;3.57;;;28.90;42.80;;;;;;5067957;28;20485;-72
2022/07/31 11:57:52;;;;;;;7.40;4.57;;;29.30;42.00;;;;;;5068159;28;20857;-72
2022/07/31 12:00:20;;;;;;;5.60;4.30;;;29.50;41.80;;;;;;5066794;28;20266;-73
2022/07/31 12:02:46;;;;;;;4.80;4.47;;;29.50;41.20;;;;;;5063624;28;20607;-72
2022/07/31 12:05:12;;;;;;;5.50;4.30;;;29.50;41.40;;;;;;5062961;28;20725;-73
2022/07/31 12:07:43;;;;;;;5.50;4.40;;;29.50;41.40;;;;;;5062215;28;20216;-73
2022/07/31 12:10:10;;;;;;;5.57;4.10;;;29.70;40.40;;;;;;5060874;28;20541;-72
2022/07/31 12:12:37;;;;;;;4.57;3.93;;;29.50;41.00;;;;;;5065655;28;21029;-72
2022/07/31 12:15:20;;;;;;;4.27;3.33;;;29.60;41.00;;;;;;5061012;28;20451;-73
2022/07/31 12:17:46;;;;;;;5.33;3.90;;;29.80;40.30;;;;;;5058373;28;20565;-72
2022/07/31 12:20:14;;;;;;;5.17;3.43;;;30.00;40.00;;;;;;5061509;28;20430;-74
2022/07/31 12:22:40;;;;;;;5.00;3.73;;;30.30;39.90;;;;;;5067381;28;20426;-71
2022/07/31 12:25:08;;;;;;;3.60;3.50;;;30.60;39.20;;;;;;5067104;28;20426;-73
2022/07/31 12:27:37;;;;;;;5.10;3.30;;;30.90;39.20;;;;;;5060658;28;20208;-73
2022/07/31 12:30:16;;;;;;;7.63;4.00;;;31.20;39.00;;;;;;5066332;28;20418;-74
2022/07/31 12:32:42;;;;;;;4.50;3.47;;;31.60;37.60;;;;;;5067551;28;20458;-73
2022/07/31 12:35:07;;;;;;;3.90;3.57;;;31.70;37.50;;;;;;5068778;28;20476;-73
2022/07/31 12:37:48;;;;;;;5.97;3.83;;;32.00;36.80;;;;;;5065348;28;20229;-73
2022/07/31 12:40:24;;;;;;;4.53;3.40;;;31.80;36.60;;;;;;5070729;28;20188;-73
2022/07/31 12:42:50;;;;;;;4.17;3.63;;;31.50;37.60;;;;;;5076029;28;20453;-73
2022/07/31 12:45:26;;;;;;;4.87;3.80;;;31.40;37.60;;;;;;5076654;28;20437;-73
2022/07/31 12:47:53;;;;;;;4.10;3.77;;;31.40;38.00;;;;;;5059728;28;20458;-73
2022/07/31 12:50:20;;;;;;;5.77;4.23;;;31.60;37.60;;;;;;5068464;28;20436;-73
2022/07/31 12:52:45;;;;;;;5.63;3.70;;;31.50;38.20;;;;;;5081659;28;20568;-72
2022/07/31 12:55:11;;;;;;;5.63;3.60;;;31.30;38.30;;;;;;5087341;28;20441;-73